Time;durP1;ratioP1;P1;durP2;ratioP2;P2;SDS_P1;SDS_P2;PMS_P1;PMS_P2;Temp;Humidity;BMP_temperature;BMP_pressure;BME280_temperature;BME280_humidity;BME280_pressure;Samples;Min_cycle;Max_cycle;Signal;HPM_P1;HPM_P2
2022/12/12 00:00:15;;;;;;;37.75;15.18;;;;;;;;;;7392477;19;20439;-71
2022/12/12 00:02:41;;;;;;;34.22;15.15;;;;;;;;;;7391997;19;20006;-72
2022/12/12 00:05:08;;;;;;;44.97;16.17;;;;;;;;;;7390166;19;20011;-71
2022/12/12 00:07:33;;;;;;;38.55;15.88;;;;;;;;;;7396928;19;20074;-71
2022/12/12 00:09:59;;;;;;;34.58;15.02;;;;;;;;;;7392347;19;20002;-72
2022/12/12 00:12:25;;;;;;;39.50;15.45;;;;;;;;;;7392441;19;20044;-71
2022/12/12 00:14:50;;;;;;;36.22;14.68;;;;;;;;;;7390497;19;20002;-71
2022/12/12 00:17:15;;;;;;;38.53;15.30;;;;;;;;;;7391933;19;19994;-71
2022/12/12 00:19:42;;;;;;;36.13;14.52;;;;;;;;;;7393127;19;20003;-71
2022/12/12 00:22:07;;;;;;;38.13;14.18;;;;;;;;;;7393300;19;20027;-70
2022/12/12 00:24:33;;;;;;;35.10;14.13;;;;;;;;;;7390133;19;19999;-71
2022/12/12 00:26:58;;;;;;;32.65;13.95;;;;;;;;;;7391554;19;19995;-72
2022/12/12 00:29:23;;;;;;;36.65;14.57;;;;;;;;;;7391836;19;20002;-72
2022/12/12 00:31:49;;;;;;;32.33;14.07;;;;;;;;;;7390947;19;19999;-72
2022/12/12 00:34:14;;;;;;;30.55;13.02;;;;;;;;;;7387392;19;20058;-71
2022/12/12 00:36:40;;;;;;;38.72;14.68;;;;;;;;;;7391716;19;19994;-71
2022/12/12 00:39:05;;;;;;;36.80;14.13;;;;;;;;;;7391812;19;20089;-71
2022/12/12 00:41:30;;;;;;;38.38;14.68;;;;;;;;;;7390040;19;20006;-71
2022/12/12 00:43:56;;;;;;;39.45;14.40;;;;;;;;;;7389816;19;20003;-72
2022/12/12 00:46:23;;;;;;;31.42;13.10;;;;;;;;;;7389772;19;19995;-70
2022/12/12 00:48:49;;;;;;;32.10;14.23;;;;;;;;;;7390998;19;20070;-72
2022/12/12 00:51:20;;;;;;;27.33;12.07;;;;;;;;;;7391046;19;19998;-72
2022/12/12 00:53:46;;;;;;;34.10;13.43;;;;;;;;;;7389852;19;20384;-73
2022/12/12 00:56:14;;;;;;;31.95;12.88;;;;;;;;;;7390655;19;19994;-71
2022/12/12 00:58:40;;;;;;;36.00;14.32;;;;;;;;;;7390831;19;19995;-71
2022/12/12 01:01:16;;;;;;;28.02;12.00;;;;;;;;;;7390291;19;20001;-72
2022/12/12 01:03:42;;;;;;;31.92;12.98;;;;;;;;;;7387944;19;20416;-71
2022/12/12 01:06:09;;;;;;;39.05;13.50;;;;;;;;;;7390740;19;20002;-71
2022/12/12 01:08:34;;;;;;;35.75;13.38;;;;;;;;;;7389364;19;20054;-71
2022/12/12 01:11:00;;;;;;;36.53;14.05;;;;;;;;;;7390271;19;20015;-70
2022/12/12 01:13:25;;;;;;;32.05;13.10;;;;;;;;;;7389816;19;19995;-71
2022/12/12 01:15:51;;;;;;;31.88;13.25;;;;;;;;;;7390313;19;20001;-71
2022/12/12 01:18:17;;;;;;;33.53;13.07;;;;;;;;;;7390242;19;19999;-71
2022/12/12 01:20:43;;;;;;;34.08;13.43;;;;;;;;;;7390274;19;20005;-71
2022/12/12 01:23:08;;;;;;;31.52;13.90;;;;;;;;;;7387688;19;19994;-72
2022/12/12 01:25:34;;;;;;;34.72;15.38;;;;;;;;;;7386923;19;20003;-70
2022/12/12 01:27:59;;;;;;;32.63;12.77;;;;;;;;;;7390149;19;20002;-71
2022/12/12 01:30:26;;;;;;;41.10;14.63;;;;;;;;;;7389742;19;19999;-71
2022/12/12 01:32:51;;;;;;;36.53;13.73;;;;;;;;;;7389080;19;20002;-71
2022/12/12 01:35:18;;;;;;;33.97;13.18;;;;;;;;;;7388235;19;20062;-71
2022/12/12 01:37:44;;;;;;;33.95;13.25;;;;;;;;;;7390248;19;19995;-71
2022/12/12 01:40:16;;;;;;;36.65;13.52;;;;;;;;;;7390424;19;20026;-71
2022/12/12 01:42:42;;;;;;;39.55;13.30;;;;;;;;;;7389752;19;20074;-72
2022/12/12 01:45:28;;;;;;;30.13;12.80;;;;;;;;;;7393223;19;19995;-71
2022/12/12 01:47:53;;;;;;;42.28;13.23;;;;;;;;;;7396862;19;20009;-72
2022/12/12 01:50:18;;;;;;;33.85;12.85;;;;;;;;;;7396660;19;20036;-71
2022/12/12 01:52:47;;;;;;;32.85;14.35;;;;;;;;;;7396219;19;20011;-71
2022/12/12 01:55:19;;;;;;;39.95;16.13;;;;;;;;;;7394440;19;20452;-72
2022/12/12 01:57:48;;;;;;;37.70;14.40;;;;;;;;;;7400504;19;20022;-72
2022/12/12 02:00:13;;;;;;;40.58;14.20;;;;;;;;;;7396662;19;19999;-72
2022/12/12 02:02:42;;;;;;;34.20;13.77;;;;;;;;;;7396043;19;20126;-72
2022/12/12 02:05:36;;;;;;;34.80;14.43;;;;;;;;;;7393882;19;20755;-72
2022/12/12 02:08:03;;;;;;;30.88;12.63;;;;;;;;;;7395615;19;19998;-71
2022/12/12 02:10:28;;;;;;;36.75;14.55;;;;;;;;;;7400679;19;19999;-72
2022/12/12 02:13:02;;;;;;;36.90;13.73;;;;;;;;;;7395641;19;20054;-72
2022/12/12 02:15:44;;;;;;;34.40;14.25;;;;;;;;;;7392990;19;20070;-71
2022/12/12 02:18:12;;;;;;;36.72;14.82;;;;;;;;;;7396127;19;20010;-71
2022/12/12 02:21:02;;;;;;;34.80;13.27;;;;;;;;;;7395590;19;19995;-71
2022/12/12 02:23:45;;;;;;;37.47;13.95;;;;;;;;;;7395029;19;19994;-72
2022/12/12 02:26:19;;;;;;;33.78;13.80;;;;;;;;;;7395715;19;20081;-72
2022/12/12 02:29:11;;;;;;;35.78;13.80;;;;;;;;;;7395508;19;20352;-72
2022/12/12 02:31:48;;;;;;;36.53;14.23;;;;;;;;;;7395970;19;19999;-72
2022/12/12 02:34:35;;;;;;;33.85;13.52;;;;;;;;;;7393948;19;20062;-71
2022/12/12 02:37:09;;;;;;;30.33;13.63;;;;;;;;;;7395308;19;19995;-72
2022/12/12 02:39:43;;;;;;;32.88;13.60;;;;;;;;;;7393651;19;20015;-71
2022/12/12 02:42:40;;;;;;;35.78;14.38;;;;;;;;;;7394007;19;20544;-72
2022/12/12 02:45:16;;;;;;;35.90;12.60;;;;;;;;;;7391829;19;20350;-71
2022/12/12 02:47:52;;;;;;;37.42;13.65;;;;;;;;;;7395411;19;20019;-73
2022/12/12 02:50:22;;;;;;;33.33;13.63;;;;;;;;;;7395044;19;20012;-71
2022/12/12 02:52:48;;;;;;;28.53;12.67;;;;;;;;;;7394159;19;19998;-72
2022/12/12 02:55:14;;;;;;;27.48;12.57;;;;;;;;;;7392055;19;20103;-70
2022/12/12 02:57:40;;;;;;;28.95;13.02;;;;;;;;;;7395376;19;20003;-70
2022/12/12 03:00:12;;;;;;;30.55;13.35;;;;;;;;;;7394702;19;20006;-70
2022/12/12 03:07:45;;;;;;;41.05;15.07;;;;;;;;;;7393270;19;20006;-70
2022/12/12 03:08:44;;;;;;;33.50;14.15;;;;;;;;;;7394277;19;20005;-70
2022/12/12 03:11:48;;;;;;;35.83;14.23;;;;;;;;;;7392866;19;19994;-70
2022/12/12 03:14:29;;;;;;;32.60;14.13;;;;;;;;;;7390785;19;20391;-70
2022/12/12 03:17:12;;;;;;;35.75;14.00;;;;;;;;;;7394491;19;20090;-70
2022/12/12 03:19:45;;;;;;;33.72;13.63;;;;;;;;;;7394702;19;20305;-70
2022/12/12 03:22:35;;;;;;;28.58;12.70;;;;;;;;;;7394581;19;20015;-70
2022/12/12 03:25:06;;;;;;;32.47;14.27;;;;;;;;;;7392176;19;20006;-70
2022/12/12 03:27:36;;;;;;;34.75;14.07;;;;;;;;;;7394258;19;20011;-71
2022/12/12 03:30:11;;;;;;;29.35;13.35;;;;;;;;;;7393964;19;20014;-70
2022/12/12 03:32:57;;;;;;;33.80;13.63;;;;;;;;;;7392032;19;20006;-70
2022/12/12 03:35:37;;;;;;;33.33;12.55;;;;;;;;;;7392209;19;20003;-70
2022/12/12 03:38:16;;;;;;;32.80;12.82;;;;;;;;;;7394300;19;20066;-70
2022/12/12 03:41:00;;;;;;;34.70;13.82;;;;;;;;;;7392069;19;20472;-69
2022/12/12 03:43:29;;;;;;;30.92;14.50;;;;;;;;;;7392428;19;20476;-69
2022/12/12 03:46:08;;;;;;;31.88;12.63;;;;;;;;;;7391408;19;19999;-70
2022/12/12 03:48:39;;;;;;;31.35;12.80;;;;;;;;;;7393823;19;19998;-71
2022/12/12 03:51:11;;;;;;;32.15;13.60;;;;;;;;;;7398185;19;20318;-71
2022/12/12 03:53:48;;;;;;;29.52;12.15;;;;;;;;;;7393096;19;20186;-71
2022/12/12 03:56:19;;;;;;;29.27;12.30;;;;;;;;;;7393373;19;19995;-71
2022/12/12 03:58:47;;;;;;;;;;;;;;;;;;7394410;19;20006;-71
2022/12/12 04:01:17;;;;;;;33.90;12.75;;;;;;;;;;7397681;19;19925;-70
2022/12/12 04:03:53;;;;;;;30.33;12.18;;;;;;;;;;7390408;19;20022;-71
2022/12/12 04:06:29;;;;;;;31.10;12.23;;;;;;;;;;7393328;19;20345;-70
2022/12/12 04:15:11;;;;;;;31.75;11.77;;;;;;;;;;7391760;19;20035;-70
2022/12/12 04:17:46;;;;;;;28.92;12.20;;;;;;;;;;7401267;19;20027;-70
2022/12/12 04:23:15;;;;;;;31.25;13.10;;;;;;;;;;7391577;19;20512;-70
2022/12/12 04:28:31;;;;;;;35.17;14.73;;;;;;;;;;7396790;19;20332;-70
2022/12/12 04:31:02;;;;;;;27.85;12.68;;;;;;;;;;7391206;19;20006;-70
2022/12/12 04:33:37;;;;;;;35.10;14.02;;;;;;;;;;7391258;19;20013;-70
2022/12/12 04:36:04;;;;;;;33.67;13.43;;;;;;;;;;7392076;19;20011;-70
2022/12/12 04:38:30;;;;;;;32.05;12.93;;;;;;;;;;7392248;19;20348;-71
2022/12/12 04:40:58;;;;;;;30.08;12.75;;;;;;;;;;7391756;19;20006;-70
2022/12/12 04:43:34;;;;;;;34.95;12.40;;;;;;;;;;7391297;19;20091;-70
2022/12/12 04:46:05;;;;;;;34.70;12.15;;;;;;;;;;7388749;19;20723;-70
2022/12/12 04:48:35;;;;;;;;;;;;;;;;;;7392715;19;20312;-70
2022/12/12 04:51:02;;;;;;;29.67;11.93;;;;;;;;;;7391737;19;19923;-70
2022/12/12 04:53:32;;;;;;;29.95;13.15;;;;;;;;;;7390782;19;20003;-69
2022/12/12 04:56:01;;;;;;;33.50;13.15;;;;;;;;;;7388323;19;19991;-71
2022/12/12 04:58:26;;;;;;;31.08;12.77;;;;;;;;;;7391651;19;19999;-71
2022/12/12 05:01:02;;;;;;;28.27;11.82;;;;;;;;;;7391857;19;20058;-71
2022/12/12 05:03:40;;;;;;;31.73;11.88;;;;;;;;;;7389199;19;20006;-71
2022/12/12 05:06:10;;;;;;;30.02;12.63;;;;;;;;;;7389481;19;20467;-71
2022/12/12 05:08:40;;;;;;;30.52;12.63;;;;;;;;;;7392012;19;20073;-70
2022/12/12 05:11:06;;;;;;;31.40;12.30;;;;;;;;;;7390322;19;20007;-70
2022/12/12 05:13:36;;;;;;;31.75;12.73;;;;;;;;;;7390193;19;20474;-70
2022/12/12 05:16:17;;;;;;;28.87;13.00;;;;;;;;;;7391327;19;20025;-71
2022/12/12 05:18:43;;;;;;;28.83;12.55;;;;;;;;;;7392545;19;20003;-72
2022/12/12 05:21:08;;;;;;;26.55;11.82;;;;;;;;;;7398679;19;20022;-72
2022/12/12 05:23:33;;;;;;;26.90;12.77;;;;;;;;;;7395366;19;20459;-71
2022/12/12 05:25:58;;;;;;;28.50;11.55;;;;;;;;;;7394821;19;20006;-71
2022/12/12 05:28:24;;;;;;;33.33;12.90;;;;;;;;;;7398018;19;19998;-70
2022/12/12 05:30:49;;;;;;;30.00;11.70;;;;;;;;;;7399274;19;19999;-71
2022/12/12 05:33:14;;;;;;;30.08;12.52;;;;;;;;;;7397408;19;20369;-71
2022/12/12 05:35:40;;;;;;;34.35;14.20;;;;;;;;;;7395800;19;20003;-72
2022/12/12 05:38:05;;;;;;;31.88;12.90;;;;;;;;;;7397833;19;19995;-72
2022/12/12 05:40:31;;;;;;;31.27;12.20;;;;;;;;;;7397557;19;19999;-71
2022/12/12 05:42:56;;;;;;;31.55;13.20;;;;;;;;;;7397119;19;20051;-71
2022/12/12 05:45:21;;;;;;;33.22;14.25;;;;;;;;;;7395186;19;19995;-71
2022/12/12 05:47:47;;;;;;;34.47;13.85;;;;;;;;;;7402294;19;19994;-70
2022/12/12 05:50:12;;;;;;;30.17;13.80;;;;;;;;;;7400204;19;20058;-70
2022/12/12 05:52:37;;;;;;;104.65;38.03;;;;;;;;;;7401858;19;19991;-71
2022/12/12 05:55:03;;;;;;;47.10;17.40;;;;;;;;;;7399063;19;19991;-70
2022/12/12 05:57:29;;;;;;;49.58;18.80;;;;;;;;;;7394227;19;20068;-70
2022/12/12 05:59:54;;;;;;;33.58;13.55;;;;;;;;;;7398125;19;20003;-71
2022/12/12 06:02:19;;;;;;;30.98;12.52;;;;;;;;;;7392716;19;19999;-71
2022/12/12 06:04:45;;;;;;;33.20;12.70;;;;;;;;;;7397151;19;20409;-71
2022/12/12 06:07:10;;;;;;;32.10;12.18;;;;;;;;;;7399404;19;20118;-69
2022/12/12 06:09:35;;;;;;;26.50;11.48;;;;;;;;;;7400307;19;20455;-69
2022/12/12 06:12:01;;;;;;;30.35;12.38;;;;;;;;;;7400091;19;20007;-69
2022/12/12 06:14:26;;;;;;;35.13;12.18;;;;;;;;;;7399732;19;20023;-70
2022/12/12 06:16:52;;;;;;;32.72;13.05;;;;;;;;;;7399896;19;20005;-69
2022/12/12 06:19:18;;;;;;;33.75;12.65;;;;;;;;;;7399286;19;20019;-70
2022/12/12 06:21:44;;;;;;;29.45;13.13;;;;;;;;;;7396780;19;20003;-70
2022/12/12 06:24:09;;;;;;;32.22;12.93;;;;;;;;;;7394955;19;20006;-70
2022/12/12 06:26:34;;;;;;;35.00;12.98;;;;;;;;;;7396596;19;20460;-69
2022/12/12 06:29:00;;;;;;;27.27;13.80;;;;;;;;;;7396478;19;19998;-70
2022/12/12 06:31:25;;;;;;;31.27;12.73;;;;;;;;;;7394019;19;20027;-70
2022/12/12 06:33:50;;;;;;;35.72;12.07;;;;;;;;;;7386755;19;20010;-70
2022/12/12 06:36:22;;;;;;;33.38;11.68;;;;;;;;;;7357279;19;20006;-71
2022/12/12 06:38:57;;;;;;;34.95;12.75;;;;;;;;;;7393585;19;20437;-70
2022/12/12 06:41:24;;;;;;;34.08;12.65;;;;;;;;;;7394808;19;20002;-70
2022/12/12 06:43:49;;;;;;;31.48;13.02;;;;;;;;;;7393485;19;20435;-70
2022/12/12 06:46:21;;;;;;;32.08;11.65;;;;;;;;;;7394862;19;20033;-71
2022/12/12 06:48:46;;;;;;;30.30;12.10;;;;;;;;;;7394699;19;20318;-71
2022/12/12 06:51:14;;;;;;;33.95;12.07;;;;;;;;;;7394131;19;20090;-71
2022/12/12 06:53:40;;;;;;;31.60;13.45;;;;;;;;;;7394297;19;20002;-71
2022/12/12 06:56:11;;;;;;;36.17;13.88;;;;;;;;;;7391486;19;20040;-71
2022/12/12 06:58:37;;;;;;;27.85;12.43;;;;;;;;;;7387704;19;19991;-70
2022/12/12 07:01:03;;;;;;;33.75;13.82;;;;;;;;;;7387146;19;20006;-71
2022/12/12 07:03:28;;;;;;;30.90;12.57;;;;;;;;;;7388024;19;20009;-70
2022/12/12 07:05:53;;;;;;;28.98;12.23;;;;;;;;;;7385820;19;20005;-70
2022/12/12 07:08:19;;;;;;;29.73;11.77;;;;;;;;;;7387966;19;19998;-70
2022/12/12 07:10:44;;;;;;;27.13;10.88;;;;;;;;;;7390423;19;20029;-69
2022/12/12 07:13:10;;;;;;;31.80;13.35;;;;;;;;;;7394461;19;20002;-70
2022/12/12 07:15:47;;;;;;;27.92;10.95;;;;;;;;;;7393019;19;20009;-70
2022/12/12 07:18:14;;;;;;;27.65;10.77;;;;;;;;;;7392862;19;20362;-70
2022/12/12 07:20:41;;;;;;;31.17;10.70;;;;;;;;;;7392383;19;20551;-70
2022/12/12 07:23:07;;;;;;;15.05;5.53;;;;;;;;;;7392941;19;20019;-70
2022/12/12 07:25:36;;;;;;;14.38;5.90;;;;;;;;;;7390936;19;20009;-71
2022/12/12 07:28:02;;;;;;;15.75;7.57;;;;;;;;;;7391934;19;20348;-70
2022/12/12 07:30:27;;;;;;;17.88;8.13;;;;;;;;;;7391107;19;20058;-70
2022/12/12 07:32:52;;;;;;;8.88;3.83;;;;;;;;;;7337363;19;1004988;-70
2022/12/12 07:35:18;;;;;;;6.43;3.40;;;;;;;;;;7390930;19;20030;-69
2022/12/12 07:37:43;;;;;;;6.70;4.05;;;;;;;;;;7392985;19;20015;-69
2022/12/12 07:40:08;;;;;;;5.90;2.58;;;;;;;;;;7394344;19;19995;-71
2022/12/12 07:42:34;;;;;;;0.47;0.47;;;;;;;;;;7385304;19;20011;-74
2022/12/12 07:44:59;;;;;;;0.65;0.55;;;;;;;;;;7388790;19;20380;-73
2022/12/12 07:47:24;;;;;;;0.50;0.50;;;;;;;;;;7390801;19;19998;-73
2022/12/12 07:49:53;;;;;;;0.15;0.15;;;;;;;;;;7388013;19;20015;-73
2022/12/12 07:52:19;;;;;;;0.77;0.75;;;;;;;;;;7392805;19;20478;-73
2022/12/12 07:54:44;;;;;;;0.35;0.35;;;;;;;;;;7391731;19;20344;-73
2022/12/12 07:57:09;;;;;;;0.82;0.68;;;;;;;;;;7392977;19;20362;-73
2022/12/12 07:59:35;;;;;;;0.63;0.63;;;;;;;;;;7392632;19;20766;-73
2022/12/12 08:02:00;;;;;;;0.20;0.20;;;;;;;;;;7391898;19;20505;-72
2022/12/12 08:04:25;;;;;;;0.10;0.10;;;;;;;;;;7391721;19;20404;-73
2022/12/12 08:06:50;;;;;;;0.10;0.10;;;;;;;;;;7390547;19;20070;-73
2022/12/12 08:09:16;;;;;;;0.10;0.10;;;;;;;;;;7392357;19;20020;-73
2022/12/12 08:11:42;;;;;;;0.10;0.10;;;;;;;;;;7393281;19;20027;-72
2022/12/12 08:14:07;;;;;;;0.70;0.40;;;;;;;;;;7390853;19;20005;-72
2022/12/12 08:16:33;;;;;;;0.22;0.22;;;;;;;;;;7391728;19;20078;-71
2022/12/12 08:18:58;;;;;;;0.10;0.10;;;;;;;;;;7391737;19;19995;-74
2022/12/12 08:21:24;;;;;;;0.82;0.82;;;;;;;;;;7391626;19;19994;-74
2022/12/12 08:23:50;;;;;;;1.25;1.25;;;;;;;;;;7389696;19;20448;-73
2022/12/12 08:26:17;;;;;;;1.75;1.05;;;;;;;;;;7390017;19;20018;-73
2022/12/12 08:28:44;;;;;;;0.65;0.65;;;;;;;;;;7391898;19;20027;-73
2022/12/12 08:31:13;;;;;;;1.77;1.15;;;;;;;;;;7391781;19;20022;-72
2022/12/12 08:33:39;;;;;;;1.10;1.08;;;;;;;;;;7390308;19;20009;-73
2022/12/12 08:36:18;;;;;;;0.63;0.63;;;;;;;;;;7392423;19;20451;-76
2022/12/12 08:38:44;;;;;;;0.60;0.60;;;;;;;;;;7390821;19;20066;-73
2022/12/12 08:41:13;;;;;;;0.32;0.32;;;;;;;;;;7391076;19;20019;-73
2022/12/12 08:43:39;;;;;;;0.40;0.40;;;;;;;;;;7391361;19;20321;-73
2022/12/12 08:46:06;;;;;;;1.20;1.10;;;;;;;;;;7390693;19;20506;-72
2022/12/12 08:48:32;;;;;;;1.13;0.57;;;;;;;;;;7389294;19;20014;-72
2022/12/12 08:50:58;;;;;;;0.10;0.10;;;;;;;;;;7390812;19;19995;-70
2022/12/12 08:53:24;;;;;;;0.10;0.10;;;;;;;;;;7386058;19;20250;-70
2022/12/12 08:55:50;;;;;;;0.45;0.32;;;;;;;;;;7386969;19;20361;-74
2022/12/12 08:58:15;;;;;;;1.75;0.70;;;;;;;;;;7389876;19;20061;-76
2022/12/12 09:00:41;;;;;;;0.65;0.40;;;;;;;;;;7389928;19;20011;-75
2022/12/12 09:03:06;;;;;;;1.08;0.55;;;;;;;;;;7391827;19;20015;-75
2022/12/12 09:05:31;;;;;;;0.25;0.25;;;;;;;;;;7389253;19;20680;-76
2022/12/12 09:07:58;;;;;;;2.95;0.73;;;;;;;;;;7391756;19;20010;-76
2022/12/12 09:10:25;;;;;;;0.47;0.47;;;;;;;;;;7390463;19;20075;-76
2022/12/12 09:12:50;;;;;;;2.20;0.60;;;;;;;;;;7390187;19;20022;-75
2022/12/12 09:15:16;;;;;;;0.55;0.55;;;;;;;;;;7389278;19;19998;-72
2022/12/12 09:17:41;;;;;;;0.40;0.40;;;;;;;;;;7390569;19;20738;-72
2022/12/12 09:20:07;;;;;;;2.15;1.38;;;;;;;;;;7387020;19;20078;-73
2022/12/12 09:22:32;;;;;;;11.57;0.88;;;;;;;;;;7389793;19;19995;-74
2022/12/12 09:24:58;;;;;;;0.68;0.68;;;;;;;;;;7387778;19;20019;-73
2022/12/12 09:27:23;;;;;;;0.50;0.50;;;;;;;;;;7389229;19;20003;-76
2022/12/12 09:29:48;;;;;;;0.40;0.40;;;;;;;;;;7389734;19;19998;-74
2022/12/12 09:32:14;;;;;;;0.95;0.93;;;;;;;;;;7391408;19;20007;-73
2022/12/12 09:34:39;;;;;;;2.35;2.17;;;;;;;;;;7387342;19;20003;-75
2022/12/12 09:37:04;;;;;;;2.42;1.48;;;;;;;;;;7390973;19;20086;-74
2022/12/12 09:39:30;;;;;;;2.40;1.35;;;;;;;;;;7389234;19;19987;-72
2022/12/12 09:41:56;;;;;;;0.43;0.43;;;;;;;;;;7388771;19;20015;-75
2022/12/12 09:44:24;;;;;;;0.98;0.90;;;;;;;;;;7387680;19;20002;-75
2022/12/12 09:47:06;;;;;;;10.23;3.60;;;;;;;;;;7387047;19;20409;-75
2022/12/12 09:49:46;;;;;;;1.25;1.08;;;;;;;;;;7389750;19;20005;-74
2022/12/12 09:52:33;;;;;;;1.40;1.30;;;;;;;;;;7390185;19;20005;-75
2022/12/12 09:55:01;;;;;;;0.45;0.45;;;;;;;;;;7389219;19;19999;-75
2022/12/12 09:57:42;;;;;;;2.35;1.77;;;;;;;;;;7390117;19;20361;-75
2022/12/12 10:00:11;;;;;;;2.03;1.80;;;;;;;;;;7388851;19;20070;-74
2022/12/12 10:02:49;;;;;;;1.10;1.00;;;;;;;;;;7389313;19;19998;-76
2022/12/12 10:05:23;;;;;;;2.65;2.45;;;;;;;;;;7389209;19;20002;-73
2022/12/12 10:08:03;;;;;;;0.95;0.65;;;;;;;;;;7392618;19;19998;-74
2022/12/12 10:10:33;;;;;;;2.13;1.73;;;;;;;;;;7394282;19;19995;-73
2022/12/12 10:13:00;;;;;;;0.95;0.85;;;;;;;;;;7392038;19;19995;-74
2022/12/12 10:15:41;;;;;;;0.20;0.20;;;;;;;;;;7386001;19;20005;-71
2022/12/12 10:18:20;;;;;;;;;;;;;;;;;;7393182;19;20058;-72
2022/12/12 10:20:50;;;;;;;4.75;1.10;;;;;;;;;;7393163;19;19946;-74
2022/12/12 10:23:36;;;;;;;0.20;0.20;;;;;;;;;;7391687;19;20475;-73
2022/12/12 10:26:07;;;;;;;0.22;0.22;;;;;;;;;;7389649;19;20019;-72
2022/12/12 10:28:34;;;;;;;0.85;0.57;;;;;;;;;;7388559;19;20496;-73
2022/12/12 10:31:06;;;;;;;0.43;0.40;;;;;;;;;;7394772;19;20003;-73
2022/12/12 10:33:43;;;;;;;4.65;3.28;;;;;;;;;;7395234;19;20007;-73
2022/12/12 10:36:26;;;;;;;1.63;1.45;;;;;;;;;;7394781;19;20003;-73
2022/12/12 10:39:09;;;;;;;2.72;2.53;;;;;;;;;;7394232;19;20006;-73
2022/12/12 10:42:00;;;;;;;0.32;0.32;;;;;;;;;;7395503;19;19998;-73
2022/12/12 10:44:45;;;;;;;3.60;2.17;;;;;;;;;;7391514;19;20007;-73
2022/12/12 10:47:11;;;;;;;1.70;1.05;;;;;;;;;;7394901;19;20003;-73
2022/12/12 10:49:38;;;;;;;2.25;2.15;;;;;;;;;;7395562;19;20476;-73
2022/12/12 10:52:13;;;;;;;1.55;1.45;;;;;;;;;;7396764;19;20030;-73
2022/12/12 10:54:44;;;;;;;5.70;3.08;;;;;;;;;;7392406;19;20116;-73
2022/12/12 10:57:42;;;;;;;1.98;1.27;;;;;;;;;;7395040;19;20036;-72
2022/12/12 11:00:26;;;;;;;1.00;0.60;;;;;;;;;;7392134;19;19995;-73
2022/12/12 11:02:56;;;;;;;1.10;1.00;;;;;;;;;;7393192;19;20357;-73
2022/12/12 11:05:26;;;;;;;1.42;1.33;;;;;;;;;;7389905;19;20006;-71
2022/12/12 11:08:06;;;;;;;1.30;1.17;;;;;;;;;;7395761;19;20301;-73
2022/12/12 11:10:35;;;;;;;0.80;0.80;;;;;;;;;;7386663;19;20404;-73
2022/12/12 11:13:08;;;;;;;1.17;1.13;;;;;;;;;;7392435;19;20006;-73
2022/12/12 11:15:42;;;;;;;1.17;1.13;;;;;;;;;;7391410;19;20006;-73
2022/12/12 11:18:14;;;;;;;4.47;1.88;;;;;;;;;;7392788;19;20083;-72
2022/12/12 11:21:07;;;;;;;2.83;2.38;;;;;;;;;;7392679;19;20471;-71
2022/12/12 11:23:37;;;;;;;1.30;1.20;;;;;;;;;;7390533;19;20009;-73
2022/12/12 11:26:11;;;;;;;3.17;2.85;;;;;;;;;;7393250;19;20010;-72
2022/12/12 11:28:38;;;;;;;0.75;0.75;;;;;;;;;;7392077;19;20002;-72
2022/12/12 11:31:11;;;;;;;0.98;0.93;;;;;;;;;;7393208;19;20009;-73
2022/12/12 11:33:47;;;;;;;4.43;2.70;;;;;;;;;;7392964;19;20366;-73
2022/12/12 11:36:15;;;;;;;2.35;2.03;;;;;;;;;;7367136;19;20005;-73
2022/12/12 11:38:47;;;;;;;0.90;0.80;;;;;;;;;;7392205;19;20453;-73
2022/12/12 11:41:13;;;;;;;1.45;0.75;;;;;;;;;;7393219;19;20002;-73
2022/12/12 11:43:44;;;;;;;1.05;0.93;;;;;;;;;;7393710;19;20031;-73
2022/12/12 11:46:12;;;;;;;;;;;;;;;;;;7389061;19;20038;-73
2022/12/12 11:48:52;;;;;;;4.65;1.60;;;;;;;;;;7395330;19;19915;-72
2022/12/12 11:51:41;;;;;;;9.02;3.47;;;;;;;;;;7393967;19;20019;-73
2022/12/12 11:54:25;;;;;;;3.38;2.13;;;;;;;;;;7394399;19;20018;-73
2022/12/12 11:57:02;;;;;;;1.77;1.60;;;;;;;;;;7393108;19;20008;-72
2022/12/12 11:59:35;;;;;;;3.83;2.72;;;;;;;;;;7393631;19;19999;-72
2022/12/12 12:02:26;;;;;;;2.72;2.20;;;;;;;;;;7394300;19;20002;-74
2022/12/12 12:05:29;;;;;;;4.65;2.70;;;;;;;;;;7390941;19;20013;-74
2022/12/12 12:08:28;;;;;;;2.65;0.93;;;;;;;;;;7391753;19;19998;-72
2022/12/12 12:10:53;;;;;;;3.50;2.75;;;;;;;;;;7391767;19;20062;-72
2022/12/12 12:13:43;;;;;;;5.70;2.72;;;;;;;;;;7389735;19;20367;-74
2022/12/12 12:16:31;;;;;;;6.18;2.25;;;;;;;;;;7391972;19;19990;-72
2022/12/12 12:19:09;;;;;;;8.57;2.15;;;;;;;;;;7386792;19;20014;-74
2022/12/12 12:21:37;;;;;;;1.83;1.52;;;;;;;;;;7391825;19;20002;-76
2022/12/12 12:24:33;;;;;;;5.40;1.95;;;;;;;;;;7392076;19;20011;-75
2022/12/12 12:27:17;;;;;;;8.43;4.78;;;;;;;;;;7392594;19;20089;-74
2022/12/12 12:30:07;;;;;;;10.10;4.50;;;;;;;;;;7390427;19;20006;-74
2022/12/12 12:32:42;;;;;;;3.78;2.38;;;;;;;;;;7391405;19;20007;-70
2022/12/12 12:35:23;;;;;;;3.42;2.58;;;;;;;;;;7389140;19;20009;-70
2022/12/12 12:37:49;;;;;;;2.78;2.38;;;;;;;;;;7390905;19;20041;-70
2022/12/12 12:40:24;;;;;;;13.38;3.40;;;;;;;;;;7389645;19;19998;-71
2022/12/12 12:43:07;;;;;;;2.53;2.20;;;;;;;;;;7387084;19;20012;-70
2022/12/12 12:45:51;;;;;;;3.38;1.67;;;;;;;;;;7389352;19;20023;-71
2022/12/12 12:48:30;;;;;;;1.23;1.13;;;;;;;;;;7390528;19;20362;-72
2022/12/12 12:51:21;;;;;;;2.08;1.83;;;;;;;;;;7389368;19;20041;-70
2022/12/12 12:53:47;;;;;;;;;;;;;;;;;;7390790;19;20002;-70
2022/12/12 12:56:25;;;;;;;1.35;1.10;;;;;;;;;;7390081;19;19914;-70
2022/12/12 12:58:53;;;;;;;2.10;1.30;;;;;;;;;;7389459;19;20007;-71
2022/12/12 13:01:26;;;;;;;0.20;0.20;;;;;;;;;;7390004;19;20058;-70
2022/12/12 13:04:09;;;;;;;0.98;0.98;;;;;;;;;;7386640;19;20002;-74
2022/12/12 13:07:13;;;;;;;20.80;7.68;;;;;;;;;;7390046;19;20464;-72
2022/12/12 13:09:56;;;;;;;18.63;7.10;;;;;;;;;;7389956;19;19995;-72
2022/12/12 13:12:38;;;;;;;18.52;8.00;;;;;;;;;;7389768;19;19994;-74
2022/12/12 13:15:26;;;;;;;24.25;10.77;;;;;;;;;;7389940;19;19997;-74
2022/12/12 13:18:10;;;;;;;18.95;7.22;;;;;;;;;;7389194;19;19999;-73
2022/12/12 13:20:47;;;;;;;21.00;9.93;;;;;;;;;;7389199;19;20561;-73
2022/12/12 13:23:45;;;;;;;19.00;7.78;;;;;;;;;;7388769;19;20003;-74
2022/12/12 13:26:16;;;;;;;18.33;7.00;;;;;;;;;;7387788;19;19995;-73
2022/12/12 13:28:48;;;;;;;19.15;7.80;;;;;;;;;;7391107;19;20037;-74
2022/12/12 13:31:26;;;;;;;22.15;8.35;;;;;;;;;;7389763;19;20006;-75
2022/12/12 13:33:59;;;;;;;20.88;8.73;;;;;;;;;;7389967;19;20464;-75
2022/12/12 13:36:27;;;;;;;19.38;7.00;;;;;;;;;;7387730;19;19991;-74
2022/12/12 13:39:01;;;;;;;15.27;6.38;;;;;;;;;;7389810;19;20046;-74
2022/12/12 13:41:52;;;;;;;17.13;7.65;;;;;;;;;;7395757;19;19998;-73
2022/12/12 13:44:37;;;;;;;16.88;7.60;;;;;;;;;;7396166;19;20003;-74
2022/12/12 13:47:21;;;;;;;19.02;8.15;;;;;;;;;;7397568;19;20084;-74
2022/12/12 13:49:52;;;;;;;17.98;7.15;;;;;;;;;;7395554;19;19999;-74
2022/12/12 13:52:26;;;;;;;;;;;;;;;;;;7397726;19;19998;-75
2022/12/12 13:54:55;;;;;;;18.88;8.77;;;;;;;;;;7393282;19;20317;-73
2022/12/12 13:57:23;;;;;;;21.45;9.02;;;;;;;;;;7396829;19;19999;-75
2022/12/12 13:59:54;;;;;;;21.33;9.80;;;;;;;;;;7395591;19;20010;-72
2022/12/12 14:02:31;;;;;;;18.33;8.02;;;;;;;;;;7397011;19;20018;-75
2022/12/12 14:05:19;;;;;;;25.75;9.35;;;;;;;;;;7394739;19;20033;-75
2022/12/12 14:07:51;;;;;;;18.80;8.40;;;;;;;;;;7395344;19;19998;-75
2022/12/12 14:10:21;;;;;;;14.93;7.95;;;;;;;;;;7395824;19;19998;-76
2022/12/12 14:12:47;;;;;;;25.67;8.50;;;;;;;;;;7396984;19;19994;-80
2022/12/12 14:15:30;;;;;;;18.42;8.45;;;;;;;;;;7394783;19;20006;-80
2022/12/12 14:17:59;;;;;;;21.83;8.18;;;;;;;;;;7397567;19;20002;-79
2022/12/12 14:20:27;;;;;;;20.75;8.30;;;;;;;;;;7393945;19;20002;-79
2022/12/12 14:22:58;;;;;;;19.80;7.90;;;;;;;;;;7395683;19;20174;-71
2022/12/12 14:25:36;;;;;;;14.45;7.63;;;;;;;;;;7393516;19;19990;-72
2022/12/12 14:28:18;;;;;;;23.48;8.07;;;;;;;;;;7397376;19;19999;-72
2022/12/12 14:30:45;;;;;;;24.95;9.05;;;;;;;;;;7395549;19;20486;-72
2022/12/12 14:33:16;;;;;;;16.50;7.07;;;;;;;;;;7395261;19;19998;-74
2022/12/12 14:35:47;;;;;;;15.73;7.35;;;;;;;;;;7394340;19;20058;-74
2022/12/12 14:38:12;;;;;;;;;;;;;;;;;;7395206;19;19995;-72
2022/12/12 14:40:46;;;;;;;19.53;7.77;;;;;;;;;;7396534;19;19911;-71
2022/12/12 14:43:16;;;;;;;17.25;7.35;;;;;;;;;;7394766;19;20260;-71
2022/12/12 14:45:54;;;;;;;18.60;7.53;;;;;;;;;;7392700;19;20061;-73
2022/12/12 14:48:23;;;;;;;15.18;6.57;;;;;;;;;;7394140;19;19999;-73
2022/12/12 14:50:53;;;;;;;23.33;7.90;;;;;;;;;;7395030;19;19999;-72
2022/12/12 14:53:24;;;;;;;16.38;7.45;;;;;;;;;;7394627;19;20222;-73
2022/12/12 14:56:10;;;;;;;;;;;;;;;;;;7393367;19;20349;-72
2022/12/12 14:58:41;;;;;;;15.75;6.95;;;;;;;;;;7392654;19;19978;-72
2022/12/12 15:01:07;;;;;;;15.23;7.00;;;;;;;;;;7393364;19;20007;-71
2022/12/12 15:03:46;;;;;;;18.77;8.15;;;;;;;;;;7393999;19;20003;-73
2022/12/12 15:06:30;;;;;;;16.13;6.88;;;;;;;;;;7391890;19;20002;-72
2022/12/12 15:09:06;;;;;;;18.38;7.03;;;;;;;;;;7392834;19;20356;-72
2022/12/12 15:11:32;;;;;;;22.83;8.38;;;;;;;;;;7392975;19;20013;-74